createdAt,value
2018-01-03T00:00:36.287Z,0.00
2018-01-03T00:01:36.269Z,0.00
2018-01-03T00:02:36.250Z,0.00
2018-01-03T00:03:36.283Z,0.00
2018-01-03T00:04:36.209Z,0.00
2018-01-03T00:05:36.186Z,0.00
2018-01-03T00:06:36.169Z,0.00
2018-01-03T00:07:36.139Z,0.00
2018-01-03T00:08:36.138Z,0.00
2018-01-03T00:09:36.105Z,0.00
2018-01-03T00:10:36.089Z,0.00
2018-01-03T00:11:36.065Z,0.00
2018-01-03T00:12:36.044Z,0.00
2018-01-03T00:13:36.025Z,0.00
2018-01-03T00:14:36.004Z,0.00
2018-01-03T00:15:35.979Z,0.00
2018-01-03T00:16:35.969Z,0.00
2018-01-03T00:17:35.948Z,0.00
2018-01-03T00:18:35.931Z,0.00
2018-01-03T00:19:35.909Z,0.00
2018-01-03T00:20:35.887Z,0.00
2018-01-03T00:21:35.869Z,0.00
2018-01-03T00:22:35.859Z,0.00
2018-01-03T00:23:35.825Z,0.00
2018-01-03T00:24:35.817Z,0.00
2018-01-03T00:25:35.794Z,0.00
2018-01-03T00:26:35.773Z,0.00
2018-01-03T00:27:35.748Z,0.00
2018-01-03T00:28:35.730Z,0.00
2018-01-03T00:29:35.721Z,0.00
2018-01-03T00:30:35.699Z,0.00
2018-01-03T00:31:35.669Z,0.00
2018-01-03T00:32:35.650Z,0.00
2018-01-03T00:33:35.631Z,0.00
2018-01-03T00:34:35.601Z,0.00
2018-01-03T00:35:35.601Z,0.00
2018-01-03T00:36:35.576Z,0.00
2018-01-03T00:37:35.605Z,0.00
2018-01-03T00:38:35.549Z,0.00
2018-01-03T00:39:35.517Z,0.00
2018-01-03T00:40:35.496Z,0.00
2018-01-03T00:41:35.473Z,0.00
2018-01-03T00:42:35.456Z,0.00
2018-01-03T00:43:35.432Z,0.00
2018-01-03T00:44:35.414Z,0.00
2018-01-03T00:45:35.394Z,0.00
2018-01-03T00:46:35.366Z,0.00
2018-01-03T00:47:35.353Z,0.00
2018-01-03T00:48:35.335Z,0.00
2018-01-03T00:49:35.315Z,0.00
2018-01-03T00:50:35.293Z,0.00
2018-01-03T00:51:35.281Z,0.00
2018-01-03T00:52:35.255Z,0.00
2018-01-03T00:53:35.236Z,0.00
2018-01-03T00:54:35.216Z,0.00
2018-01-03T00:55:35.198Z,0.00
2018-01-03T00:56:35.184Z,0.00
2018-01-03T00:57:35.159Z,0.00
2018-01-03T00:58:35.139Z,0.00
2018-01-03T00:59:35.135Z,0.00
2018-01-03T01:00:35.099Z,0.00
2018-01-03T01:01:35.069Z,0.00
2018-01-03T01:02:35.060Z,0.00
2018-01-03T01:03:35.042Z,0.00
2018-01-03T01:04:35.018Z,0.00
2018-01-03T01:05:34.992Z,0.00
2018-01-03T01:06:34.976Z,0.00
2018-01-03T01:07:34.961Z,0.00
2018-01-03T01:08:34.941Z,0.00
2018-01-03T01:09:34.924Z,0.00
2018-01-03T01:10:34.900Z,0.00
2018-01-03T01:11:34.884Z,0.00
2018-01-03T01:12:34.872Z,0.00
2018-01-03T01:13:34.836Z,0.00
2018-01-03T01:14:34.827Z,0.00
2018-01-03T01:15:34.807Z,0.00
2018-01-03T01:16:34.788Z,0.00
2018-01-03T01:17:34.759Z,0.00
2018-01-03T01:18:34.753Z,0.00
2018-01-03T01:19:34.734Z,0.00
2018-01-03T01:20:34.703Z,0.00
2018-01-03T01:21:34.677Z,0.00
2018-01-03T01:22:34.676Z,0.00
2018-01-03T01:23:34.644Z,0.00
2018-01-03T01:24:34.631Z,0.00
2018-01-03T01:25:34.606Z,0.00
2018-01-03T01:26:34.585Z,0.00
2018-01-03T01:27:34.561Z,0.00
2018-01-03T01:28:34.546Z,0.00
2018-01-03T01:29:34.520Z,0.00
2018-01-03T01:30:34.507Z,0.00
2018-01-03T01:31:34.487Z,0.00
2018-01-03T01:32:34.469Z,0.00
2018-01-03T01:33:34.450Z,0.00
2018-01-03T01:34:34.432Z,0.00
2018-01-03T01:35:34.424Z,0.00
2018-01-03T01:36:34.382Z,0.00
2018-01-03T01:37:34.368Z,0.00
2018-01-03T01:38:34.344Z,0.00
2018-01-03T01:39:34.333Z,0.00
2018-01-03T01:40:34.308Z,0.00
2018-01-03T01:41:34.291Z,0.00
2018-01-03T01:42:34.268Z,0.00
2018-01-03T01:43:34.261Z,0.00
2018-01-03T01:44:34.228Z,0.00
2018-01-03T01:45:34.221Z,0.00
2018-01-03T01:46:34.192Z,0.00
2018-01-03T01:47:34.175Z,0.00
2018-01-03T01:48:34.153Z,0.00
2018-01-03T01:49:34.142Z,0.00
2018-01-03T01:50:34.127Z,0.00
2018-01-03T01:51:34.104Z,0.00
2018-01-03T01:52:34.076Z,0.00
2018-01-03T01:53:34.074Z,0.00
2018-01-03T01:54:34.038Z,0.00
2018-01-03T01:55:34.020Z,0.00
2018-01-03T01:56:33.999Z,0.00
2018-01-03T01:57:33.979Z,0.00
2018-01-03T01:58:33.958Z,0.00
2018-01-03T01:59:33.941Z,0.00
2018-01-03T02:00:33.923Z,0.00
2018-01-03T02:01:33.897Z,0.00
2018-01-03T02:02:33.886Z,0.00
2018-01-03T02:03:33.864Z,0.00
2018-01-03T02:04:33.844Z,0.00
2018-01-03T02:05:33.822Z,0.00
2018-01-03T02:06:33.804Z,0.00
2018-01-03T02:07:33.786Z,0.00
2018-01-03T02:08:33.773Z,0.00
2018-01-03T02:09:33.744Z,0.00
2018-01-03T02:10:33.729Z,0.00
2018-01-03T02:11:33.703Z,0.00
2018-01-03T02:12:33.688Z,0.00
2018-01-03T02:13:33.667Z,0.00
2018-01-03T02:14:33.652Z,0.00
2018-01-03T02:15:33.624Z,0.00
2018-01-03T02:16:33.621Z,0.00
2018-01-03T02:17:33.590Z,0.00
2018-01-03T02:18:33.575Z,0.00
2018-01-03T02:19:33.552Z,0.00
2018-01-03T02:20:33.541Z,0.00
2018-01-03T02:21:33.513Z,0.00
2018-01-03T02:22:33.499Z,0.00
2018-01-03T02:23:33.476Z,0.00
2018-01-03T02:24:33.461Z,0.00
2018-01-03T02:25:33.437Z,0.00
2018-01-03T02:26:33.420Z,0.00
2018-01-03T02:27:33.401Z,0.00
2018-01-03T02:28:33.379Z,0.00
2018-01-03T02:29:33.359Z,0.00
2018-01-03T02:30:33.351Z,0.00
2018-01-03T02:31:33.324Z,0.00
2018-01-03T02:32:33.316Z,0.00
2018-01-03T02:33:33.281Z,0.00
2018-01-03T02:34:33.268Z,0.00
2018-01-03T02:35:33.249Z,0.00
2018-01-03T02:36:33.236Z,0.00
2018-01-03T02:37:33.206Z,0.00
2018-01-03T02:38:33.195Z,0.00
2018-01-03T02:39:33.165Z,0.00
2018-01-03T02:40:33.150Z,0.00
2018-01-03T02:41:33.127Z,0.00
2018-01-03T02:42:33.116Z,0.00
2018-01-03T02:43:33.090Z,0.00
2018-01-03T02:44:33.069Z,0.00
2018-01-03T02:45:33.051Z,0.00
2018-01-03T02:46:33.032Z,0.00
2018-01-03T02:47:33.017Z,0.00
2018-01-03T02:48:32.993Z,0.00
2018-01-03T02:49:32.974Z,0.00
2018-01-03T02:50:32.948Z,0.00
2018-01-03T02:51:32.936Z,0.00
2018-01-03T02:52:32.916Z,0.00
2018-01-03T02:53:32.896Z,0.00
2018-01-03T02:54:32.886Z,0.00
2018-01-03T02:55:32.860Z,0.00
2018-01-03T02:56:32.838Z,0.00
2018-01-03T02:57:32.820Z,0.00
2018-01-03T02:58:32.793Z,0.00
2018-01-03T02:59:32.783Z,0.00
2018-01-03T03:00:32.762Z,0.00
2018-01-03T03:01:32.742Z,0.00
2018-01-03T03:02:32.717Z,0.00
2018-01-03T03:03:32.706Z,0.00
2018-01-03T03:04:32.683Z,0.00
2018-01-03T03:05:32.667Z,0.00
2018-01-03T03:06:32.641Z,0.00
2018-01-03T03:07:32.632Z,0.00
2018-01-03T03:08:32.613Z,0.00
2018-01-03T03:09:32.579Z,0.00
2018-01-03T03:10:32.568Z,0.00
2018-01-03T03:11:32.548Z,0.00
2018-01-03T03:12:32.529Z,0.00
2018-01-03T03:13:32.527Z,0.00
2018-01-03T03:14:32.490Z,0.00
2018-01-03T03:15:32.482Z,0.00
2018-01-03T03:16:32.451Z,0.00
2018-01-03T03:17:32.432Z,0.00
2018-01-03T03:18:32.413Z,0.00
2018-01-03T03:19:32.392Z,0.00
2018-01-03T03:20:32.374Z,0.00
2018-01-03T03:21:32.355Z,0.00
2018-01-03T03:22:32.337Z,0.00
2018-01-03T03:23:32.316Z,0.00
2018-01-03T03:24:32.300Z,0.00
2018-01-03T03:25:32.279Z,0.00
2018-01-03T03:26:32.258Z,0.00
2018-01-03T03:27:32.240Z,0.00
2018-01-03T03:28:32.220Z,0.00
2018-01-03T03:29:32.200Z,0.00
2018-01-03T03:30:32.181Z,0.00
2018-01-03T03:31:32.162Z,0.00
2018-01-03T03:32:32.142Z,0.00
2018-01-03T03:33:32.123Z,0.00
2018-01-03T03:34:32.103Z,0.00
2018-01-03T03:35:32.088Z,0.00
2018-01-03T03:36:32.065Z,0.00
2018-01-03T03:37:32.045Z,0.00
2018-01-03T03:38:32.023Z,0.00
2018-01-03T03:39:32.006Z,0.00
2018-01-03T03:40:31.991Z,0.00
2018-01-03T03:41:31.968Z,0.00
2018-01-03T03:42:31.949Z,0.00
2018-01-03T03:43:31.953Z,0.00
2018-01-03T03:44:31.910Z,0.00
2018-01-03T03:45:31.891Z,0.00
2018-01-03T03:46:31.872Z,0.00
2018-01-03T03:47:31.853Z,0.00
2018-01-03T03:48:31.837Z,0.00
2018-01-03T03:49:31.810Z,0.00
2018-01-03T03:50:31.805Z,0.00
2018-01-03T03:51:31.778Z,0.00
2018-01-03T03:52:31.776Z,0.00
2018-01-03T03:53:31.734Z,0.00
2018-01-03T03:54:31.723Z,0.00
2018-01-03T03:55:31.715Z,0.00
2018-01-03T03:56:31.679Z,0.00
2018-01-03T03:57:31.658Z,0.00
2018-01-03T03:58:31.641Z,0.00
2018-01-03T03:59:31.625Z,0.00
2018-01-03T04:00:31.599Z,0.00
2018-01-03T04:01:31.582Z,0.00
2018-01-03T04:02:31.566Z,0.00
2018-01-03T04:03:31.549Z,0.00
2018-01-03T04:04:31.522Z,0.00
2018-01-03T04:05:31.507Z,0.00
2018-01-03T04:06:31.506Z,0.00
2018-01-03T04:07:31.491Z,0.00
2018-01-03T04:08:31.444Z,0.00
2018-01-03T04:09:31.427Z,0.00
2018-01-03T04:10:31.425Z,0.00
2018-01-03T04:11:31.416Z,0.00
2018-01-03T04:12:31.375Z,0.00
2018-01-03T04:13:31.356Z,0.00
2018-01-03T04:14:31.337Z,0.00
2018-01-03T04:15:31.323Z,0.00
2018-01-03T04:16:31.301Z,0.00
2018-01-03T04:17:31.277Z,0.00
2018-01-03T04:18:31.262Z,0.00
2018-01-03T04:19:31.243Z,0.00
2018-01-03T04:20:31.225Z,0.00
2018-01-03T04:21:31.211Z,0.00
2018-01-03T04:22:31.188Z,0.00
2018-01-03T04:23:31.167Z,0.00
2018-01-03T04:24:31.151Z,0.00
2018-01-03T04:25:31.132Z,0.00
2018-01-03T04:26:31.112Z,0.00
2018-01-03T04:27:31.093Z,0.00
2018-01-03T04:28:31.073Z,0.00
2018-01-03T04:29:31.054Z,0.00
2018-01-03T04:30:31.037Z,0.00
2018-01-03T04:31:31.017Z,0.00
2018-01-03T04:32:30.998Z,0.00
2018-01-03T04:33:30.975Z,0.00
2018-01-03T04:34:30.962Z,0.00
2018-01-03T04:35:30.944Z,0.00
2018-01-03T04:36:30.921Z,0.00
2018-01-03T04:37:30.908Z,0.00
2018-01-03T04:38:30.887Z,0.00
2018-01-03T04:39:30.867Z,0.00
2018-01-03T04:40:30.850Z,0.00
2018-01-03T04:41:30.824Z,0.00
2018-01-03T04:42:30.811Z,0.00
2018-01-03T04:43:30.809Z,0.00
2018-01-03T04:44:30.774Z,0.00
2018-01-03T04:45:30.760Z,0.00
2018-01-03T04:46:30.733Z,0.00
2018-01-03T04:47:30.714Z,0.00
2018-01-03T04:48:30.696Z,0.00
2018-01-03T04:49:30.679Z,0.00
2018-01-03T04:50:30.655Z,0.00
2018-01-03T04:51:30.636Z,0.00
2018-01-03T04:52:30.624Z,0.00
2018-01-03T04:53:30.601Z,0.00
2018-01-03T04:54:30.593Z,0.00
2018-01-03T04:55:30.561Z,0.00
2018-01-03T04:56:30.546Z,0.00
2018-01-03T04:57:30.542Z,0.00
2018-01-03T04:58:30.511Z,0.00
2018-01-03T04:59:30.493Z,0.00
2018-01-03T05:00:30.479Z,0.00
2018-01-03T05:01:30.464Z,0.00
2018-01-03T05:02:30.438Z,0.00
2018-01-03T05:03:30.427Z,0.00
2018-01-03T05:04:30.404Z,0.00
2018-01-03T05:05:30.399Z,0.00
2018-01-03T05:06:30.364Z,0.00
2018-01-03T05:07:30.359Z,0.00
2018-01-03T05:08:30.318Z,0.00
2018-01-03T05:09:30.328Z,0.00
2018-01-03T05:10:33.301Z,0.00
2018-01-03T05:11:30.267Z,0.00
2018-01-03T05:12:30.254Z,0.00
2018-01-03T05:13:30.252Z,0.00
2018-01-03T05:14:30.220Z,0.00
2018-01-03T05:15:30.260Z,0.00
2018-01-03T05:16:30.184Z,0.00
2018-01-03T05:17:30.221Z,0.00
2018-01-03T05:18:30.140Z,0.00
2018-01-03T05:19:30.119Z,0.00
2018-01-03T05:20:30.112Z,0.00
2018-01-03T05:21:30.090Z,0.00
2018-01-03T05:22:30.080Z,0.00
2018-01-03T05:23:30.048Z,0.00
2018-01-03T05:24:30.045Z,0.00
2018-01-03T05:25:30.028Z,0.00
2018-01-03T05:26:30.003Z,0.00
2018-01-03T05:27:29.992Z,0.00
2018-01-03T05:28:29.963Z,0.00
2018-01-03T05:29:29.954Z,0.00
2018-01-03T05:30:29.942Z,0.00
2018-01-03T05:31:29.914Z,0.00
2018-01-03T05:32:29.917Z,0.00
2018-01-03T05:33:29.877Z,0.00
2018-01-03T05:34:29.841Z,0.00
2018-01-03T05:35:29.861Z,0.00
2018-01-03T05:36:29.806Z,0.00
2018-01-03T05:37:29.832Z,0.00
2018-01-03T05:38:29.766Z,0.00
2018-01-03T05:39:29.786Z,0.00
2018-01-03T05:40:29.832Z,0.00
2018-01-03T05:41:29.723Z,0.00
2018-01-03T05:42:29.714Z,0.00
2018-01-03T05:43:29.693Z,0.00
2018-01-03T05:44:29.685Z,0.00
2018-01-03T05:45:29.665Z,0.00
2018-01-03T05:46:29.637Z,0.00
2018-01-03T05:47:29.606Z,0.00
2018-01-03T05:48:29.584Z,0.00
2018-01-03T05:49:29.586Z,0.00
2018-01-03T05:50:29.550Z,0.00
2018-01-03T05:51:29.554Z,0.00
2018-01-03T05:52:29.617Z,0.00
2018-01-03T05:53:29.496Z,0.00
2018-01-03T05:54:29.492Z,0.00
2018-01-03T05:55:29.477Z,0.00
2018-01-03T05:56:29.434Z,0.00
2018-01-03T05:57:29.430Z,0.00
2018-01-03T05:58:29.459Z,0.00
2018-01-03T05:59:29.421Z,0.00
2018-01-03T06:00:29.358Z,0.00
2018-01-03T06:01:29.351Z,0.00
2018-01-03T06:02:29.357Z,0.00
2018-01-03T06:03:29.310Z,0.00
2018-01-03T06:04:29.303Z,0.00
2018-01-03T06:05:29.279Z,0.00
2018-01-03T06:06:29.268Z,0.00
2018-01-03T06:07:29.283Z,0.00
2018-01-03T06:08:29.214Z,0.00
2018-01-03T06:09:29.208Z,0.00
2018-01-03T06:10:29.193Z,0.00
2018-01-03T06:11:29.176Z,0.00
2018-01-03T06:12:29.143Z,0.00
2018-01-03T06:13:29.143Z,0.00
2018-01-03T06:14:29.115Z,0.00
2018-01-03T06:15:29.101Z,0.00
2018-01-03T06:16:29.072Z,0.00
2018-01-03T06:17:29.046Z,0.00
2018-01-03T06:18:29.046Z,0.00
2018-01-03T06:19:29.018Z,0.00
2018-01-03T06:20:29.007Z,0.00
2018-01-03T06:21:28.973Z,0.00
2018-01-03T06:22:28.984Z,0.00
2018-01-03T06:23:28.965Z,0.00
2018-01-03T06:24:28.937Z,0.00
2018-01-03T06:25:28.925Z,0.00
2018-01-03T06:26:28.888Z,0.00
2018-01-03T06:27:28.913Z,0.00
2018-01-03T06:28:28.861Z,0.00
2018-01-03T06:29:28.842Z,0.00
2018-01-03T06:30:28.854Z,0.00
2018-01-03T06:31:28.821Z,0.00
2018-01-03T06:32:28.769Z,0.00
2018-01-03T06:33:28.762Z,0.00
2018-01-03T06:34:28.766Z,0.00
2018-01-03T06:35:28.720Z,0.00
2018-01-03T06:36:28.695Z,0.00
2018-01-03T06:37:28.697Z,0.00
2018-01-03T06:38:28.686Z,0.00
2018-01-03T06:39:28.642Z,0.00
2018-01-03T06:40:28.646Z,0.00
2018-01-03T06:41:28.598Z,0.00
2018-01-03T06:42:28.611Z,0.00
2018-01-03T06:43:28.572Z,0.00
2018-01-03T06:44:28.551Z,0.00
2018-01-03T06:45:28.538Z,0.00
2018-01-03T06:46:28.536Z,0.00
2018-01-03T06:47:28.539Z,0.00
2018-01-03T06:48:28.502Z,0.00
2018-01-03T06:49:28.453Z,0.00
2018-01-03T06:50:28.449Z,0.00
2018-01-03T06:51:28.449Z,0.00
2018-01-03T06:52:28.400Z,0.00
2018-01-03T06:53:28.414Z,0.00
2018-01-03T06:54:28.375Z,0.00
2018-01-03T06:55:28.388Z,0.00
2018-01-03T06:56:28.340Z,0.00
2018-01-03T06:57:28.317Z,0.00
2018-01-03T06:58:28.302Z,0.00
2018-01-03T06:59:28.287Z,0.00
2018-01-03T07:00:28.312Z,0.00
2018-01-03T07:01:28.239Z,0.00
2018-01-03T07:02:28.218Z,0.00
2018-01-03T07:03:28.212Z,0.00
2018-01-03T07:04:28.183Z,0.00
2018-01-03T07:05:28.177Z,0.00
2018-01-03T07:06:28.157Z,0.00
2018-01-03T07:07:28.127Z,0.00
2018-01-03T07:08:28.098Z,0.00
2018-01-03T07:09:28.094Z,0.00
2018-01-03T07:10:28.225Z,0.00
2018-01-03T07:11:28.046Z,0.00
2018-01-03T07:12:28.032Z,0.00
2018-01-03T07:13:28.019Z,0.00
2018-01-03T07:14:28.002Z,0.00
2018-01-03T07:15:27.971Z,0.00
2018-01-03T07:16:27.958Z,0.00
2018-01-03T07:17:27.947Z,0.00
2018-01-03T07:18:27.936Z,0.00
2018-01-03T07:19:27.898Z,0.00
2018-01-03T07:20:27.884Z,0.00
2018-01-03T07:21:27.872Z,0.00
2018-01-03T07:22:27.845Z,0.00
2018-01-03T07:23:27.830Z,0.00
2018-01-03T07:24:27.822Z,0.00
2018-01-03T07:25:27.795Z,0.00
2018-01-03T07:26:27.800Z,0.00
2018-01-03T07:27:27.744Z,0.00
2018-01-03T07:28:27.731Z,0.00
2018-01-03T07:29:27.727Z,0.00
2018-01-03T07:30:27.697Z,0.00
2018-01-03T07:31:27.669Z,0.00
2018-01-03T07:32:27.663Z,0.00
2018-01-03T07:33:27.659Z,0.00
2018-01-03T07:34:27.633Z,5.63
2018-01-03T07:35:27.592Z,0.00
2018-01-03T07:36:27.584Z,5.63
2018-01-03T07:37:27.558Z,5.63
2018-01-03T07:38:27.572Z,5.63
2018-01-03T07:39:27.518Z,5.63
2018-01-03T07:40:27.508Z,5.63
2018-01-03T07:41:27.500Z,0.00
2018-01-03T07:42:27.492Z,0.00
2018-01-03T07:43:27.469Z,0.00
2018-01-03T07:44:27.431Z,0.00
2018-01-03T07:45:27.433Z,0.00
2018-01-03T07:46:27.385Z,0.00
2018-01-03T07:47:27.364Z,0.00
2018-01-03T07:48:27.418Z,5.63
2018-01-03T07:49:27.345Z,11.25
2018-01-03T07:50:27.348Z,11.25
2018-01-03T07:51:27.304Z,11.25
2018-01-03T07:52:27.273Z,11.25
2018-01-03T07:53:27.252Z,11.25
2018-01-03T07:54:27.370Z,11.25
2018-01-03T07:55:27.234Z,11.25
2018-01-03T07:56:27.207Z,11.25
2018-01-03T07:57:27.194Z,11.25
2018-01-03T07:58:27.178Z,11.25
2018-01-03T07:59:27.176Z,11.25
2018-01-03T08:00:27.197Z,11.25
2018-01-03T08:01:27.116Z,11.25
2018-01-03T08:02:27.150Z,5.63
2018-01-03T08:03:27.062Z,5.63
2018-01-03T08:04:27.120Z,5.63
2018-01-03T08:05:27.020Z,11.25
2018-01-03T08:06:27.025Z,5.63
2018-01-03T08:07:26.988Z,11.25
2018-01-03T08:08:26.962Z,16.88
2018-01-03T08:09:26.974Z,16.88
2018-01-03T08:10:26.971Z,16.88
2018-01-03T08:11:27.034Z,16.88
2018-01-03T08:12:26.917Z,16.88
2018-01-03T08:13:26.930Z,16.88
2018-01-03T08:14:26.854Z,22.50
2018-01-03T08:15:26.839Z,22.50
2018-01-03T08:16:26.809Z,28.13
2018-01-03T08:17:26.807Z,28.13
2018-01-03T08:18:26.783Z,28.13
2018-01-03T08:19:26.763Z,28.13
2018-01-03T08:20:26.735Z,28.13
2018-01-03T08:21:26.736Z,28.13
2018-01-03T08:22:26.721Z,33.75
2018-01-03T08:23:26.693Z,33.75
2018-01-03T08:24:26.667Z,45.00
2018-01-03T08:25:26.648Z,50.63
2018-01-03T08:26:26.609Z,50.63
2018-01-03T08:27:26.611Z,45.00
2018-01-03T08:28:26.600Z,61.88
2018-01-03T08:29:26.578Z,61.88
2018-01-03T08:30:26.538Z,67.50
2018-01-03T08:31:26.519Z,78.75
2018-01-03T08:32:26.523Z,73.13
2018-01-03T08:33:26.494Z,50.63
2018-01-03T08:34:26.487Z,61.88
2018-01-03T08:35:26.444Z,56.25
2018-01-03T08:36:26.445Z,56.25
2018-01-03T08:37:26.429Z,56.25
2018-01-03T08:38:26.385Z,50.63
2018-01-03T08:39:26.356Z,45.00
2018-01-03T08:40:26.343Z,45.00
2018-01-03T08:41:26.352Z,56.25
2018-01-03T08:42:26.297Z,73.13
2018-01-03T08:43:26.283Z,90.00
2018-01-03T08:44:26.325Z,112.50
2018-01-03T08:45:26.272Z,101.25
2018-01-03T08:46:26.229Z,90.00
2018-01-03T08:47:26.249Z,90.00
2018-01-03T08:48:26.207Z,78.75
2018-01-03T08:49:26.194Z,67.50
2018-01-03T08:50:26.161Z,67.50
2018-01-03T08:51:26.149Z,67.50
2018-01-03T08:52:26.115Z,78.75
2018-01-03T08:53:26.086Z,61.88
2018-01-03T08:54:26.129Z,61.88
2018-01-03T08:55:26.053Z,61.88
2018-01-03T08:56:26.040Z,61.88
2018-01-03T08:57:26.036Z,73.13
2018-01-03T08:58:25.996Z,67.50
2018-01-03T08:59:25.983Z,73.13
2018-01-03T09:00:25.983Z,73.13
2018-01-03T09:01:25.939Z,67.50
2018-01-03T09:02:25.994Z,84.38
2018-01-03T09:03:25.924Z,95.63
2018-01-03T09:04:25.896Z,73.13
2018-01-03T09:05:25.984Z,84.38
2018-01-03T09:06:26.094Z,101.25
2018-01-03T09:07:25.839Z,78.75
2018-01-03T09:08:25.801Z,73.13
2018-01-03T09:09:25.818Z,84.38
2018-01-03T09:10:25.774Z,112.50
2018-01-03T09:11:25.737Z,95.63
2018-01-03T09:12:25.727Z,95.63
2018-01-03T09:13:25.698Z,106.88
2018-01-03T09:14:25.674Z,106.88
2018-01-03T09:15:25.669Z,106.88
2018-01-03T09:16:25.645Z,101.25
2018-01-03T09:17:25.663Z,90.00
2018-01-03T09:18:25.603Z,90.00
2018-01-03T09:19:25.605Z,90.00
2018-01-03T09:20:25.573Z,95.63
2018-01-03T09:21:25.556Z,101.25
2018-01-03T09:22:25.551Z,112.50
2018-01-03T09:23:25.511Z,101.25
2018-01-03T09:24:25.523Z,78.75
2018-01-03T09:25:25.512Z,90.00
2018-01-03T09:26:25.485Z,84.38
2018-01-03T09:27:25.440Z,73.13
2018-01-03T09:28:25.409Z,95.63
2018-01-03T09:29:25.420Z,78.75
2018-01-03T09:30:25.384Z,84.38
2018-01-03T09:31:25.386Z,84.38
2018-01-03T09:32:25.345Z,106.88
2018-01-03T09:33:25.316Z,112.50
2018-01-03T09:34:25.287Z,101.25
2018-01-03T09:35:27.324Z,95.63
2018-01-03T09:36:25.253Z,101.25
2018-01-03T09:37:25.245Z,95.63
2018-01-03T09:38:25.222Z,84.38
2018-01-03T09:39:25.201Z,106.88
2018-01-03T09:40:25.201Z,118.13
2018-01-03T09:41:25.164Z,123.75
2018-01-03T09:42:25.143Z,123.75
2018-01-03T09:43:25.148Z,123.75
2018-01-03T09:44:25.143Z,118.13
2018-01-03T09:45:25.087Z,123.75
2018-01-03T09:46:25.063Z,123.75
2018-01-03T09:47:25.052Z,106.88
2018-01-03T09:48:25.051Z,123.75
2018-01-03T09:49:25.033Z,123.75
2018-01-03T09:50:24.995Z,129.38
2018-01-03T09:51:24.983Z,135.00
2018-01-03T09:52:24.972Z,146.25
2018-01-03T09:53:24.978Z,135.00
2018-01-03T09:54:24.935Z,129.38
2018-01-03T09:55:24.905Z,118.13
2018-01-03T09:56:24.958Z,146.25
2018-01-03T09:57:24.851Z,129.38
2018-01-03T09:58:24.833Z,106.88
2018-01-03T09:59:24.813Z,90.00
2018-01-03T10:00:24.796Z,101.25
2018-01-03T10:01:24.775Z,106.88
2018-01-03T10:02:24.772Z,101.25
2018-01-03T10:03:24.751Z,95.63
2018-01-03T10:04:24.745Z,95.63
2018-01-03T10:05:24.775Z,118.13
2018-01-03T10:06:24.719Z,118.13
2018-01-03T10:07:24.678Z,123.75
2018-01-03T10:08:24.640Z,129.38
2018-01-03T10:09:24.654Z,112.50
2018-01-03T10:10:27.616Z,129.38
2018-01-03T10:11:24.600Z,135.00
2018-01-03T10:12:24.561Z,140.63
2018-01-03T10:13:24.548Z,146.25
2018-01-03T10:14:24.531Z,151.88
2018-01-03T10:15:24.527Z,146.25
2018-01-03T10:16:24.511Z,151.88
2018-01-03T10:17:24.479Z,157.50
2018-01-03T10:18:24.456Z,168.75
2018-01-03T10:19:24.456Z,163.13
2018-01-03T10:20:24.418Z,174.38
2018-01-03T10:21:24.508Z,168.75
2018-01-03T10:22:24.449Z,168.75
2018-01-03T10:23:24.369Z,151.88
2018-01-03T10:24:24.354Z,146.25
2018-01-03T10:25:24.340Z,118.13
2018-01-03T10:26:24.311Z,106.88
2018-01-03T10:27:24.297Z,123.75
2018-01-03T10:28:24.270Z,146.25
2018-01-03T10:29:24.247Z,140.63
2018-01-03T10:30:24.240Z,146.25
2018-01-03T10:31:24.216Z,106.88
2018-01-03T10:32:24.217Z,84.38
2018-01-03T10:33:24.177Z,118.13
2018-01-03T10:34:24.219Z,129.38
2018-01-03T10:35:24.174Z,123.75
2018-01-03T10:36:24.177Z,123.75
2018-01-03T10:37:24.104Z,123.75
2018-01-03T10:38:24.087Z,112.50
2018-01-03T10:39:24.063Z,118.13
2018-01-03T10:40:24.087Z,112.50
2018-01-03T10:41:24.032Z,129.38
2018-01-03T10:42:24.011Z,118.13
2018-01-03T10:43:24.006Z,106.88
2018-01-03T10:44:24.010Z,118.13
2018-01-03T10:45:23.963Z,101.25
2018-01-03T10:46:23.958Z,106.88
2018-01-03T10:47:23.924Z,106.88
2018-01-03T10:48:23.897Z,106.88
2018-01-03T10:49:23.894Z,101.25
2018-01-03T10:50:23.888Z,90.00
2018-01-03T10:51:23.855Z,61.88
2018-01-03T10:52:23.840Z,61.88
2018-01-03T10:53:23.819Z,67.50
2018-01-03T10:54:23.817Z,78.75
2018-01-03T10:55:23.763Z,73.13
2018-01-03T10:56:23.743Z,56.25
2018-01-03T10:57:23.766Z,61.88
2018-01-03T10:58:23.726Z,67.50
2018-01-03T10:59:23.694Z,67.50
2018-01-03T11:00:23.678Z,67.50
2018-01-03T11:01:23.646Z,67.50
2018-01-03T11:02:23.657Z,61.88
2018-01-03T11:03:23.653Z,50.63
2018-01-03T11:04:23.625Z,61.88
2018-01-03T11:05:23.606Z,67.50
2018-01-03T11:06:23.626Z,73.13
2018-01-03T11:07:23.601Z,67.50
2018-01-03T11:08:23.534Z,67.50
2018-01-03T11:09:23.536Z,61.88
2018-01-03T11:10:23.495Z,56.25
2018-01-03T11:11:23.495Z,45.00
2018-01-03T11:12:23.458Z,45.00
2018-01-03T11:13:23.431Z,56.25
2018-01-03T11:14:23.420Z,56.25
2018-01-03T11:15:23.430Z,56.25
2018-01-03T11:16:23.434Z,61.88
2018-01-03T11:17:23.383Z,67.50
2018-01-03T11:18:23.348Z,61.88
2018-01-03T11:19:23.346Z,45.00
2018-01-03T11:20:23.301Z,45.00
2018-01-03T11:21:23.292Z,45.00
2018-01-03T11:22:23.287Z,56.25
2018-01-03T11:23:23.268Z,45.00
2018-01-03T11:24:23.218Z,45.00
2018-01-03T11:25:23.233Z,50.63
2018-01-03T11:26:23.198Z,33.75
2018-01-03T11:27:23.181Z,45.00
2018-01-03T11:28:23.193Z,39.38
2018-01-03T11:29:23.122Z,45.00
2018-01-03T11:30:23.146Z,39.38
2018-01-03T11:31:23.175Z,39.38
2018-01-03T11:32:23.119Z,45.00
2018-01-03T11:33:23.065Z,45.00
2018-01-03T11:34:23.017Z,45.00
2018-01-03T11:35:23.031Z,56.25
2018-01-03T11:36:23.008Z,61.88
2018-01-03T11:37:22.988Z,78.75
2018-01-03T11:38:22.978Z,78.75
2018-01-03T11:39:22.999Z,84.38
2018-01-03T11:40:22.909Z,84.38
2018-01-03T11:41:22.889Z,78.75
2018-01-03T11:42:22.862Z,90.00
2018-01-03T11:43:22.869Z,95.63
2018-01-03T11:44:22.857Z,78.75
2018-01-03T11:45:22.803Z,90.00
2018-01-03T11:46:22.787Z,78.75
2018-01-03T11:47:22.768Z,84.38
2018-01-03T11:48:22.746Z,67.50
2018-01-03T11:49:22.752Z,73.13
2018-01-03T11:50:22.732Z,67.50
2018-01-03T11:51:22.730Z,67.50
2018-01-03T11:52:22.669Z,61.88
2018-01-03T11:53:22.672Z,61.88
2018-01-03T11:54:22.640Z,56.25
2018-01-03T11:55:22.629Z,56.25
2018-01-03T11:56:22.593Z,56.25
2018-01-03T11:57:22.577Z,50.63
2018-01-03T11:58:22.566Z,56.25
2018-01-03T11:59:22.524Z,56.25
2018-01-03T12:00:22.520Z,67.50
2018-01-03T12:01:22.511Z,45.00
2018-01-03T12:02:22.514Z,50.63
2018-01-03T12:03:22.445Z,50.63
2018-01-03T12:04:22.433Z,67.50
2018-01-03T12:05:22.409Z,78.75
2018-01-03T12:06:22.407Z,61.88
2018-01-03T12:07:22.371Z,67.50
2018-01-03T12:08:22.387Z,67.50
2018-01-03T12:09:22.324Z,67.50
2018-01-03T12:10:22.302Z,61.88
2018-01-03T12:11:22.298Z,56.25
2018-01-03T12:12:22.260Z,56.25
2018-01-03T12:13:22.235Z,101.25
2018-01-03T12:14:22.219Z,84.38
2018-01-03T12:15:22.189Z,67.50
2018-01-03T12:16:22.189Z,67.50
2018-01-03T12:17:22.191Z,50.63
2018-01-03T12:18:22.162Z,45.00
2018-01-03T12:19:22.137Z,61.88
2018-01-03T12:20:22.114Z,50.63
2018-01-03T12:21:22.078Z,67.50
2018-01-03T12:22:22.062Z,61.88
2018-01-03T12:23:22.037Z,45.00
2018-01-03T12:24:22.016Z,67.50
2018-01-03T12:25:22.210Z,61.88
2018-01-03T12:26:21.999Z,61.88
2018-01-03T12:27:21.980Z,56.25
2018-01-03T12:28:21.964Z,56.25
2018-01-03T12:29:21.928Z,67.50
2018-01-03T12:30:21.942Z,67.50
2018-01-03T12:31:21.912Z,56.25
2018-01-03T12:32:21.913Z,61.88
2018-01-03T12:33:21.831Z,45.00
2018-01-03T12:34:21.822Z,56.25
2018-01-03T12:35:21.828Z,61.88
2018-01-03T12:36:21.827Z,61.88
2018-01-03T12:37:21.804Z,56.25
2018-01-03T12:38:21.771Z,39.38
2018-01-03T12:39:21.724Z,45.00
2018-01-03T12:40:21.703Z,56.25
2018-01-03T12:41:21.666Z,45.00
2018-01-03T12:42:21.654Z,50.63
2018-01-03T12:43:21.631Z,56.25
2018-01-03T12:44:21.614Z,50.63
2018-01-03T12:45:21.607Z,67.50
2018-01-03T12:46:21.603Z,56.25
2018-01-03T12:47:21.565Z,67.50
2018-01-03T12:48:21.531Z,56.25
2018-01-03T12:49:21.544Z,50.63
2018-01-03T12:50:21.522Z,56.25
2018-01-03T12:51:21.499Z,56.25
2018-01-03T12:52:21.456Z,50.63
2018-01-03T12:53:21.440Z,73.13
2018-01-03T12:54:21.436Z,67.50
2018-01-03T12:55:21.384Z,67.50
2018-01-03T12:56:21.398Z,61.88
2018-01-03T12:57:21.364Z,67.50
2018-01-03T12:58:21.371Z,73.13
2018-01-03T12:59:21.301Z,61.88
2018-01-03T13:00:21.291Z,61.88
2018-01-03T13:01:21.269Z,50.63
2018-01-03T13:02:21.272Z,56.25
2018-01-03T13:03:21.232Z,61.88
2018-01-03T13:04:21.210Z,67.50
2018-01-03T13:05:21.189Z,56.25